sensor_id;sensor_type;location;lat;lon;timestamp;P1;durP1;ratioP1;P2;durP2;ratioP2
15230;SDS011;32569;51.762;8.564;2023-09-19T00:00:16;1.50;;;1.40;;
15230;SDS011;32569;51.762;8.564;2023-09-19T00:02:46;1.60;;;1.50;;
15230;SDS011;32569;51.762;8.564;2023-09-19T00:05:18;3.00;;;1.80;;
15230;SDS011;32569;51.762;8.564;2023-09-19T00:07:48;1.40;;;1.20;;
15230;SDS011;32569;51.762;8.564;2023-09-19T00:10:16;2.33;;;1.37;;
15230;SDS011;32569;51.762;8.564;2023-09-19T00:12:44;1.40;;;1.30;;
15230;SDS011;32569;51.762;8.564;2023-09-19T00:15:12;1.90;;;1.47;;
15230;SDS011;32569;51.762;8.564;2023-09-19T00:17:42;1.27;;;1.20;;
15230;SDS011;32569;51.762;8.564;2023-09-19T00:20:09;1.57;;;1.47;;
15230;SDS011;32569;51.762;8.564;2023-09-19T00:22:38;1.43;;;1.30;;
15230;SDS011;32569;51.762;8.564;2023-09-19T00:25:06;1.67;;;1.30;;
15230;SDS011;32569;51.762;8.564;2023-09-19T00:27:33;1.47;;;1.37;;
15230;SDS011;32569;51.762;8.564;2023-09-19T00:30:00;1.47;;;1.37;;
15230;SDS011;32569;51.762;8.564;2023-09-19T00:32:30;1.60;;;1.50;;
15230;SDS011;32569;51.762;8.564;2023-09-19T00:34:57;1.57;;;1.47;;
15230;SDS011;32569;51.762;8.564;2023-09-19T00:37:23;2.67;;;1.50;;
15230;SDS011;32569;51.762;8.564;2023-09-19T00:39:50;1.70;;;1.30;;
15230;SDS011;32569;51.762;8.564;2023-09-19T00:42:17;2.23;;;1.90;;
15230;SDS011;32569;51.762;8.564;2023-09-19T00:44:45;1.60;;;1.50;;
15230;SDS011;32569;51.762;8.564;2023-09-19T00:47:12;1.50;;;1.40;;
15230;SDS011;32569;51.762;8.564;2023-09-19T00:49:43;1.63;;;1.40;;
15230;SDS011;32569;51.762;8.564;2023-09-19T00:52:14;1.97;;;1.30;;
15230;SDS011;32569;51.762;8.564;2023-09-19T00:54:41;1.97;;;1.60;;
15230;SDS011;32569;51.762;8.564;2023-09-19T00:57:08;1.27;;;1.17;;
15230;SDS011;32569;51.762;8.564;2023-09-19T00:59:35;1.40;;;1.30;;
15230;SDS011;32569;51.762;8.564;2023-09-19T01:02:02;1.40;;;1.30;;
15230;SDS011;32569;51.762;8.564;2023-09-19T01:04:35;1.80;;;1.70;;
15230;SDS011;32569;51.762;8.564;2023-09-19T01:07:04;1.10;;;1.10;;
15230;SDS011;32569;51.762;8.564;2023-09-19T01:09:37;1.70;;;1.37;;
15230;SDS011;32569;51.762;8.564;2023-09-19T01:12:04;1.67;;;1.57;;
15230;SDS011;32569;51.762;8.564;2023-09-19T01:14:38;2.37;;;1.40;;
15230;SDS011;32569;51.762;8.564;2023-09-19T01:17:14;1.73;;;1.40;;
15230;SDS011;32569;51.762;8.564;2023-09-19T01:22:45;2.10;;;1.60;;
15230;SDS011;32569;51.762;8.564;2023-09-19T01:25:33;2.77;;;1.77;;
15230;SDS011;32569;51.762;8.564;2023-09-19T01:28:25;2.23;;;1.43;;
15230;SDS011;32569;51.762;8.564;2023-09-19T01:31:03;1.90;;;1.40;;
15230;SDS011;32569;51.762;8.564;2023-09-19T01:36:26;2.43;;;1.70;;
15230;SDS011;32569;51.762;8.564;2023-09-19T01:38:54;1.37;;;1.27;;
15230;SDS011;32569;51.762;8.564;2023-09-19T01:41:25;1.87;;;1.63;;
15230;SDS011;32569;51.762;8.564;2023-09-19T01:43:59;3.63;;;1.80;;
15230;SDS011;32569;51.762;8.564;2023-09-19T01:46:33;2.23;;;1.47;;
15230;SDS011;32569;51.762;8.564;2023-09-19T01:49:04;1.50;;;1.40;;
15230;SDS011;32569;51.762;8.564;2023-09-19T01:51:42;1.73;;;1.60;;
15230;SDS011;32569;51.762;8.564;2023-09-19T01:54:24;2.57;;;1.90;;
15230;SDS011;32569;51.762;8.564;2023-09-19T01:56:57;3.47;;;1.53;;
15230;SDS011;32569;51.762;8.564;2023-09-19T01:59:37;2.03;;;1.80;;
15230;SDS011;32569;51.762;8.564;2023-09-19T02:02:10;1.17;;;0.90;;
15230;SDS011;32569;51.762;8.564;2023-09-19T02:04:39;0.80;;;0.80;;
15230;SDS011;32569;51.762;8.564;2023-09-19T02:07:06;2.07;;;0.80;;
15230;SDS011;32569;51.762;8.564;2023-09-19T02:09:33;1.03;;;0.90;;
15230;SDS011;32569;51.762;8.564;2023-09-19T02:12:04;1.00;;;0.90;;
15230;SDS011;32569;51.762;8.564;2023-09-19T02:14:35;0.80;;;0.80;;
15230;SDS011;32569;51.762;8.564;2023-09-19T02:17:03;1.17;;;1.07;;
15230;SDS011;32569;51.762;8.564;2023-09-19T02:19:41;0.80;;;0.80;;
15230;SDS011;32569;51.762;8.564;2023-09-19T02:22:07;0.70;;;0.70;;
15230;SDS011;32569;51.762;8.564;2023-09-19T02:24:38;1.10;;;1.00;;
15230;SDS011;32569;51.762;8.564;2023-09-19T02:27:05;1.60;;;1.20;;
15230;SDS011;32569;51.762;8.564;2023-09-19T02:29:32;1.23;;;1.10;;
15230;SDS011;32569;51.762;8.564;2023-09-19T02:32:00;1.10;;;1.00;;
15230;SDS011;32569;51.762;8.564;2023-09-19T02:34:29;1.30;;;0.90;;
15230;SDS011;32569;51.762;8.564;2023-09-19T02:36:56;1.60;;;1.00;;
15230;SDS011;32569;51.762;8.564;2023-09-19T02:39:25;1.40;;;1.10;;
15230;SDS011;32569;51.762;8.564;2023-09-19T02:41:56;0.30;;;0.30;;
15230;SDS011;32569;51.762;8.564;2023-09-19T02:44:23;0.20;;;0.20;;
15230;SDS011;32569;51.762;8.564;2023-09-19T02:46:50;0.20;;;0.20;;
15230;SDS011;32569;51.762;8.564;2023-09-19T02:49:16;0.30;;;0.30;;
15230;SDS011;32569;51.762;8.564;2023-09-19T02:51:45;0.20;;;0.20;;
15230;SDS011;32569;51.762;8.564;2023-09-19T02:54:12;0.10;;;0.10;;
15230;SDS011;32569;51.762;8.564;2023-09-19T02:56:40;0.10;;;0.10;;
15230;SDS011;32569;51.762;8.564;2023-09-19T02:59:10;0.20;;;0.20;;
15230;SDS011;32569;51.762;8.564;2023-09-19T03:01:37;0.10;;;0.10;;
15230;SDS011;32569;51.762;8.564;2023-09-19T03:04:11;0.20;;;0.20;;
15230;SDS011;32569;51.762;8.564;2023-09-19T03:06:38;0.23;;;0.23;;
15230;SDS011;32569;51.762;8.564;2023-09-19T03:09:07;0.10;;;0.10;;
15230;SDS011;32569;51.762;8.564;2023-09-19T03:11:37;0.30;;;0.30;;
15230;SDS011;32569;51.762;8.564;2023-09-19T03:14:05;0.17;;;0.17;;
15230;SDS011;32569;51.762;8.564;2023-09-19T03:16:31;0.20;;;0.20;;
15230;SDS011;32569;51.762;8.564;2023-09-19T03:18:58;0.20;;;0.20;;
15230;SDS011;32569;51.762;8.564;2023-09-19T03:21:25;0.30;;;0.30;;
15230;SDS011;32569;51.762;8.564;2023-09-19T03:23:54;0.20;;;0.20;;
15230;SDS011;32569;51.762;8.564;2023-09-19T03:26:22;0.13;;;0.13;;
15230;SDS011;32569;51.762;8.564;2023-09-19T03:28:55;0.20;;;0.20;;
15230;SDS011;32569;51.762;8.564;2023-09-19T03:31:21;0.13;;;0.13;;
15230;SDS011;32569;51.762;8.564;2023-09-19T03:33:48;0.20;;;0.20;;
15230;SDS011;32569;51.762;8.564;2023-09-19T03:36:15;0.20;;;0.20;;
15230;SDS011;32569;51.762;8.564;2023-09-19T03:38:41;0.10;;;0.10;;
15230;SDS011;32569;51.762;8.564;2023-09-19T03:41:11;0.20;;;0.20;;
15230;SDS011;32569;51.762;8.564;2023-09-19T03:43:46;0.20;;;0.20;;
15230;SDS011;32569;51.762;8.564;2023-09-19T03:46:14;0.20;;;0.20;;
15230;SDS011;32569;51.762;8.564;2023-09-19T03:48:41;0.20;;;0.20;;
15230;SDS011;32569;51.762;8.564;2023-09-19T03:51:09;0.20;;;0.20;;
15230;SDS011;32569;51.762;8.564;2023-09-19T03:53:39;0.23;;;0.23;;
15230;SDS011;32569;51.762;8.564;2023-09-19T03:56:06;0.10;;;0.10;;
15230;SDS011;32569;51.762;8.564;2023-09-19T03:58:33;0.20;;;0.20;;
15230;SDS011;32569;51.762;8.564;2023-09-19T04:01:05;0.20;;;0.20;;
15230;SDS011;32569;51.762;8.564;2023-09-19T04:03:32;0.20;;;0.20;;
15230;SDS011;32569;51.762;8.564;2023-09-19T04:06:11;0.20;;;0.20;;
15230;SDS011;32569;51.762;8.564;2023-09-19T04:08:38;0.20;;;0.20;;
15230;SDS011;32569;51.762;8.564;2023-09-19T04:11:09;0.20;;;0.20;;
15230;SDS011;32569;51.762;8.564;2023-09-19T04:13:36;0.20;;;0.20;;
15230;SDS011;32569;51.762;8.564;2023-09-19T04:16:03;0.20;;;0.20;;
15230;SDS011;32569;51.762;8.564;2023-09-19T04:18:31;0.20;;;0.20;;
15230;SDS011;32569;51.762;8.564;2023-09-19T04:21:02;0.20;;;0.20;;
15230;SDS011;32569;51.762;8.564;2023-09-19T04:23:30;0.20;;;0.20;;
15230;SDS011;32569;51.762;8.564;2023-09-19T04:25:57;0.13;;;0.13;;
15230;SDS011;32569;51.762;8.564;2023-09-19T04:28:24;0.20;;;0.20;;
15230;SDS011;32569;51.762;8.564;2023-09-19T04:30:52;0.20;;;0.20;;
15230;SDS011;32569;51.762;8.564;2023-09-19T04:33:20;0.10;;;0.10;;
15230;SDS011;32569;51.762;8.564;2023-09-19T04:35:49;0.20;;;0.20;;
15230;SDS011;32569;51.762;8.564;2023-09-19T04:38:17;1.63;;;1.17;;
15230;SDS011;32569;51.762;8.564;2023-09-19T04:40:46;0.60;;;0.57;;
15230;SDS011;32569;51.762;8.564;2023-09-19T04:43:16;0.60;;;0.60;;
15230;SDS011;32569;51.762;8.564;2023-09-19T04:45:43;0.50;;;0.50;;
15230;SDS011;32569;51.762;8.564;2023-09-19T04:48:16;0.30;;;0.30;;
15230;SDS011;32569;51.762;8.564;2023-09-19T04:50:43;0.20;;;0.20;;
15230;SDS011;32569;51.762;8.564;2023-09-19T04:53:11;0.20;;;0.20;;
15230;SDS011;32569;51.762;8.564;2023-09-19T04:55:40;0.20;;;0.20;;
15230;SDS011;32569;51.762;8.564;2023-09-19T04:58:07;0.23;;;0.23;;
15230;SDS011;32569;51.762;8.564;2023-09-19T05:00:33;0.20;;;0.20;;
15230;SDS011;32569;51.762;8.564;2023-09-19T05:03:00;0.20;;;0.20;;
15230;SDS011;32569;51.762;8.564;2023-09-19T05:05:28;0.30;;;0.30;;
15230;SDS011;32569;51.762;8.564;2023-09-19T05:07:55;0.20;;;0.20;;
15230;SDS011;32569;51.762;8.564;2023-09-19T05:10:25;0.20;;;0.20;;
15230;SDS011;32569;51.762;8.564;2023-09-19T05:13:00;0.20;;;0.20;;
15230;SDS011;32569;51.762;8.564;2023-09-19T05:15:29;0.30;;;0.30;;
15230;SDS011;32569;51.762;8.564;2023-09-19T05:17:56;0.23;;;0.23;;
15230;SDS011;32569;51.762;8.564;2023-09-19T05:20:23;0.20;;;0.20;;
15230;SDS011;32569;51.762;8.564;2023-09-19T05:22:57;0.20;;;0.20;;
15230;SDS011;32569;51.762;8.564;2023-09-19T05:25:27;0.20;;;0.20;;
15230;SDS011;32569;51.762;8.564;2023-09-19T05:27:56;0.30;;;0.30;;
15230;SDS011;32569;51.762;8.564;2023-09-19T05:30:24;0.20;;;0.20;;
15230;SDS011;32569;51.762;8.564;2023-09-19T05:32:52;0.20;;;0.20;;
15230;SDS011;32569;51.762;8.564;2023-09-19T05:35:22;0.20;;;0.20;;
15230;SDS011;32569;51.762;8.564;2023-09-19T05:37:52;0.20;;;0.20;;
15230;SDS011;32569;51.762;8.564;2023-09-19T05:40:21;0.20;;;0.20;;
15230;SDS011;32569;51.762;8.564;2023-09-19T05:42:49;0.20;;;0.20;;
15230;SDS011;32569;51.762;8.564;2023-09-19T05:45:16;0.20;;;0.20;;
15230;SDS011;32569;51.762;8.564;2023-09-19T05:47:47;0.20;;;0.20;;
15230;SDS011;32569;51.762;8.564;2023-09-19T05:50:15;0.30;;;0.30;;
15230;SDS011;32569;51.762;8.564;2023-09-19T05:52:42;0.23;;;0.23;;
15230;SDS011;32569;51.762;8.564;2023-09-19T05:55:09;0.20;;;0.20;;
15230;SDS011;32569;51.762;8.564;2023-09-19T05:57:36;0.20;;;0.20;;
15230;SDS011;32569;51.762;8.564;2023-09-19T06:00:06;0.73;;;0.73;;
15230;SDS011;32569;51.762;8.564;2023-09-19T06:02:39;0.30;;;0.30;;
15230;SDS011;32569;51.762;8.564;2023-09-19T06:05:09;0.37;;;0.37;;
15230;SDS011;32569;51.762;8.564;2023-09-19T06:07:36;0.27;;;0.27;;
15230;SDS011;32569;51.762;8.564;2023-09-19T06:10:09;0.33;;;0.33;;
15230;SDS011;32569;51.762;8.564;2023-09-19T06:12:40;0.20;;;0.20;;
15230;SDS011;32569;51.762;8.564;2023-09-19T06:15:14;0.30;;;0.30;;
15230;SDS011;32569;51.762;8.564;2023-09-19T06:17:46;0.20;;;0.20;;
15230;SDS011;32569;51.762;8.564;2023-09-19T06:20:13;0.20;;;0.20;;
15230;SDS011;32569;51.762;8.564;2023-09-19T06:22:40;0.30;;;0.30;;
15230;SDS011;32569;51.762;8.564;2023-09-19T06:25:08;0.30;;;0.30;;
15230;SDS011;32569;51.762;8.564;2023-09-19T06:27:39;0.30;;;0.30;;
15230;SDS011;32569;51.762;8.564;2023-09-19T06:30:07;0.30;;;0.30;;
15230;SDS011;32569;51.762;8.564;2023-09-19T06:32:37;0.20;;;0.20;;
15230;SDS011;32569;51.762;8.564;2023-09-19T06:35:04;0.20;;;0.20;;
15230;SDS011;32569;51.762;8.564;2023-09-19T06:37:37;0.20;;;0.20;;
15230;SDS011;32569;51.762;8.564;2023-09-19T06:40:05;0.30;;;0.30;;
15230;SDS011;32569;51.762;8.564;2023-09-19T06:42:38;0.20;;;0.20;;
15230;SDS011;32569;51.762;8.564;2023-09-19T06:45:06;0.30;;;0.30;;
15230;SDS011;32569;51.762;8.564;2023-09-19T06:47:39;0.20;;;0.20;;
15230;SDS011;32569;51.762;8.564;2023-09-19T06:50:09;0.20;;;0.20;;
15230;SDS011;32569;51.762;8.564;2023-09-19T06:52:38;0.20;;;0.20;;
15230;SDS011;32569;51.762;8.564;2023-09-19T06:55:05;0.20;;;0.20;;
15230;SDS011;32569;51.762;8.564;2023-09-19T06:57:34;0.30;;;0.30;;
15230;SDS011;32569;51.762;8.564;2023-09-19T07:00:01;0.30;;;0.30;;
15230;SDS011;32569;51.762;8.564;2023-09-19T07:02:33;0.30;;;0.30;;
15230;SDS011;32569;51.762;8.564;2023-09-19T07:05:07;0.20;;;0.20;;
15230;SDS011;32569;51.762;8.564;2023-09-19T07:07:40;0.10;;;0.10;;
15230;SDS011;32569;51.762;8.564;2023-09-19T07:10:11;0.20;;;0.20;;
15230;SDS011;32569;51.762;8.564;2023-09-19T07:12:38;0.20;;;0.20;;
15230;SDS011;32569;51.762;8.564;2023-09-19T07:15:08;0.20;;;0.20;;
15230;SDS011;32569;51.762;8.564;2023-09-19T07:17:35;0.20;;;0.20;;
15230;SDS011;32569;51.762;8.564;2023-09-19T07:20:10;0.20;;;0.20;;
15230;SDS011;32569;51.762;8.564;2023-09-19T07:22:41;0.20;;;0.20;;
15230;SDS011;32569;51.762;8.564;2023-09-19T07:25:07;0.10;;;0.10;;
15230;SDS011;32569;51.762;8.564;2023-09-19T07:27:34;0.17;;;0.17;;
15230;SDS011;32569;51.762;8.564;2023-09-19T07:30:01;2.87;;;2.70;;
15230;SDS011;32569;51.762;8.564;2023-09-19T07:32:28;5.30;;;2.33;;
15230;SDS011;32569;51.762;8.564;2023-09-19T07:34:54;5.77;;;2.53;;
15230;SDS011;32569;51.762;8.564;2023-09-19T07:37:25;5.60;;;2.63;;
15230;SDS011;32569;51.762;8.564;2023-09-19T07:39:52;4.43;;;2.67;;
15230;SDS011;32569;51.762;8.564;2023-09-19T07:42:19;8.53;;;3.13;;
15230;SDS011;32569;51.762;8.564;2023-09-19T07:44:49;8.07;;;2.60;;
15230;SDS011;32569;51.762;8.564;2023-09-19T07:47:18;6.53;;;2.70;;
15230;SDS011;32569;51.762;8.564;2023-09-19T07:49:46;4.93;;;2.60;;
15230;SDS011;32569;51.762;8.564;2023-09-19T07:52:13;6.80;;;2.70;;
15230;SDS011;32569;51.762;8.564;2023-09-19T07:54:44;4.40;;;2.20;;
15230;SDS011;32569;51.762;8.564;2023-09-19T07:57:12;5.13;;;2.20;;
15230;SDS011;32569;51.762;8.564;2023-09-19T07:59:40;5.03;;;2.50;;
15230;SDS011;32569;51.762;8.564;2023-09-19T08:02:07;4.70;;;2.67;;
15230;SDS011;32569;51.762;8.564;2023-09-19T08:04:40;9.63;;;2.57;;
15230;SDS011;32569;51.762;8.564;2023-09-19T08:07:07;5.13;;;2.20;;
15230;SDS011;32569;51.762;8.564;2023-09-19T08:09:36;9.13;;;2.70;;
15230;SDS011;32569;51.762;8.564;2023-09-19T08:12:05;5.03;;;2.20;;
15230;SDS011;32569;51.762;8.564;2023-09-19T08:14:33;4.77;;;2.00;;
15230;SDS011;32569;51.762;8.564;2023-09-19T08:17:00;5.23;;;2.40;;
15230;SDS011;32569;51.762;8.564;2023-09-19T08:19:26;5.50;;;2.20;;
15230;SDS011;32569;51.762;8.564;2023-09-19T08:21:56;5.17;;;2.27;;
15230;SDS011;32569;51.762;8.564;2023-09-19T08:24:27;5.67;;;2.13;;
15230;SDS011;32569;51.762;8.564;2023-09-19T08:26:54;8.37;;;2.43;;
15230;SDS011;32569;51.762;8.564;2023-09-19T08:29:23;6.53;;;2.30;;
15230;SDS011;32569;51.762;8.564;2023-09-19T08:32:00;6.03;;;2.37;;
15230;SDS011;32569;51.762;8.564;2023-09-19T08:34:30;6.73;;;2.67;;
15230;SDS011;32569;51.762;8.564;2023-09-19T08:36:59;5.07;;;2.30;;
15230;SDS011;32569;51.762;8.564;2023-09-19T08:39:25;7.27;;;2.43;;
15230;SDS011;32569;51.762;8.564;2023-09-19T08:41:56;8.40;;;2.40;;
15230;SDS011;32569;51.762;8.564;2023-09-19T08:44:26;4.40;;;2.40;;
15230;SDS011;32569;51.762;8.564;2023-09-19T08:46:55;4.80;;;2.27;;
15230;SDS011;32569;51.762;8.564;2023-09-19T08:49:32;5.63;;;2.93;;
15230;SDS011;32569;51.762;8.564;2023-09-19T08:52:04;6.57;;;3.03;;
15230;SDS011;32569;51.762;8.564;2023-09-19T08:54:38;9.23;;;3.37;;
15230;SDS011;32569;51.762;8.564;2023-09-19T08:57:08;8.50;;;2.50;;
15230;SDS011;32569;51.762;8.564;2023-09-19T08:59:38;6.27;;;2.73;;
15230;SDS011;32569;51.762;8.564;2023-09-19T09:02:11;6.47;;;2.80;;
15230;SDS011;32569;51.762;8.564;2023-09-19T09:04:39;6.00;;;2.40;;
15230;SDS011;32569;51.762;8.564;2023-09-19T09:07:09;8.37;;;2.50;;
15230;SDS011;32569;51.762;8.564;2023-09-19T09:09:37;8.13;;;2.97;;
15230;SDS011;32569;51.762;8.564;2023-09-19T09:12:07;7.07;;;3.00;;
15230;SDS011;32569;51.762;8.564;2023-09-19T09:14:35;7.57;;;2.77;;
15230;SDS011;32569;51.762;8.564;2023-09-19T09:17:07;7.17;;;3.00;;
15230;SDS011;32569;51.762;8.564;2023-09-19T09:19:33;5.83;;;2.70;;
15230;SDS011;32569;51.762;8.564;2023-09-19T09:22:10;5.43;;;2.33;;
15230;SDS011;32569;51.762;8.564;2023-09-19T09:24:38;7.33;;;2.70;;
15230;SDS011;32569;51.762;8.564;2023-09-19T09:27:21;7.57;;;2.80;;
15230;SDS011;32569;51.762;8.564;2023-09-19T09:29:54;4.87;;;2.40;;
15230;SDS011;32569;51.762;8.564;2023-09-19T09:32:22;8.27;;;2.70;;
15230;SDS011;32569;51.762;8.564;2023-09-19T09:34:52;5.67;;;3.07;;
15230;SDS011;32569;51.762;8.564;2023-09-19T09:37:21;8.10;;;3.30;;
15230;SDS011;32569;51.762;8.564;2023-09-19T09:39:50;6.00;;;2.67;;
15230;SDS011;32569;51.762;8.564;2023-09-19T09:42:29;4.57;;;2.73;;
15230;SDS011;32569;51.762;8.564;2023-09-19T09:45:16;5.30;;;2.70;;
15230;SDS011;32569;51.762;8.564;2023-09-19T09:47:46;5.67;;;2.90;;
15230;SDS011;32569;51.762;8.564;2023-09-19T09:50:29;8.03;;;2.83;;
15230;SDS011;32569;51.762;8.564;2023-09-19T09:53:21;7.13;;;2.77;;
15230;SDS011;32569;51.762;8.564;2023-09-19T09:55:57;7.20;;;3.37;;
15230;SDS011;32569;51.762;8.564;2023-09-19T09:58:27;8.13;;;2.80;;
15230;SDS011;32569;51.762;8.564;2023-09-19T10:00:55;5.07;;;2.60;;
15230;SDS011;32569;51.762;8.564;2023-09-19T10:03:34;7.57;;;2.70;;
15230;SDS011;32569;51.762;8.564;2023-09-19T10:06:05;6.17;;;3.20;;
15230;SDS011;32569;51.762;8.564;2023-09-19T10:09:02;5.20;;;3.00;;
15230;SDS011;32569;51.762;8.564;2023-09-19T10:11:37;5.73;;;2.40;;
15230;SDS011;32569;51.762;8.564;2023-09-19T10:14:09;4.57;;;2.30;;
15230;SDS011;32569;51.762;8.564;2023-09-19T10:16:40;6.57;;;2.43;;
15230;SDS011;32569;51.762;8.564;2023-09-19T10:19:14;5.20;;;2.60;;
15230;SDS011;32569;51.762;8.564;2023-09-19T10:21:50;6.07;;;3.17;;
15230;SDS011;32569;51.762;8.564;2023-09-19T10:24:20;4.00;;;2.60;;
15230;SDS011;32569;51.762;8.564;2023-09-19T10:26:50;4.33;;;2.50;;
15230;SDS011;32569;51.762;8.564;2023-09-19T10:29:17;5.03;;;2.40;;
15230;SDS011;32569;51.762;8.564;2023-09-19T10:31:52;5.17;;;2.57;;
15230;SDS011;32569;51.762;8.564;2023-09-19T10:34:23;8.73;;;3.40;;
15230;SDS011;32569;51.762;8.564;2023-09-19T10:36:51;5.60;;;2.63;;
15230;SDS011;32569;51.762;8.564;2023-09-19T10:39:20;6.80;;;2.90;;
15230;SDS011;32569;51.762;8.564;2023-09-19T10:41:50;5.13;;;2.63;;
15230;SDS011;32569;51.762;8.564;2023-09-19T10:44:21;9.97;;;2.97;;
15230;SDS011;32569;51.762;8.564;2023-09-19T10:46:50;4.00;;;2.13;;
15230;SDS011;32569;51.762;8.564;2023-09-19T10:49:17;5.50;;;2.70;;
15230;SDS011;32569;51.762;8.564;2023-09-19T10:51:46;7.53;;;2.60;;
15230;SDS011;32569;51.762;8.564;2023-09-19T10:54:15;6.33;;;2.60;;
15230;SDS011;32569;51.762;8.564;2023-09-19T10:56:46;7.40;;;3.27;;
15230;SDS011;32569;51.762;8.564;2023-09-19T10:59:16;9.60;;;3.27;;
15230;SDS011;32569;51.762;8.564;2023-09-19T11:01:47;8.67;;;3.00;;
15230;SDS011;32569;51.762;8.564;2023-09-19T11:04:26;7.47;;;2.53;;
15230;SDS011;32569;51.762;8.564;2023-09-19T11:07:05;4.97;;;2.87;;
15230;SDS011;32569;51.762;8.564;2023-09-19T11:09:46;6.77;;;2.60;;
15230;SDS011;32569;51.762;8.564;2023-09-19T11:24:33;6.90;;;2.90;;
15230;SDS011;32569;51.762;8.564;2023-09-19T11:27:09;4.77;;;2.20;;
15230;SDS011;32569;51.762;8.564;2023-09-19T11:29:45;5.27;;;2.37;;
15230;SDS011;32569;51.762;8.564;2023-09-19T11:32:13;6.77;;;3.03;;
15230;SDS011;32569;51.762;8.564;2023-09-19T11:34:41;6.57;;;2.63;;
15230;SDS011;32569;51.762;8.564;2023-09-19T11:40:29;3.73;;;2.27;;
15230;SDS011;32569;51.762;8.564;2023-09-19T11:42:55;4.83;;;2.37;;
15230;SDS011;32569;51.762;8.564;2023-09-19T11:48:34;6.53;;;2.53;;
15230;SDS011;32569;51.762;8.564;2023-09-19T11:51:10;7.80;;;2.50;;
15230;SDS011;32569;51.762;8.564;2023-09-19T11:53:44;6.87;;;2.40;;
15230;SDS011;32569;51.762;8.564;2023-09-19T11:56:14;5.00;;;2.60;;
15230;SDS011;32569;51.762;8.564;2023-09-19T11:58:42;4.73;;;2.73;;
15230;SDS011;32569;51.762;8.564;2023-09-19T12:01:11;5.10;;;2.50;;
15230;SDS011;32569;51.762;8.564;2023-09-19T12:03:45;5.63;;;2.50;;
15230;SDS011;32569;51.762;8.564;2023-09-19T12:06:14;5.53;;;2.47;;
15230;SDS011;32569;51.762;8.564;2023-09-19T12:08:42;8.23;;;2.63;;
15230;SDS011;32569;51.762;8.564;2023-09-19T12:11:12;4.13;;;2.10;;
15230;SDS011;32569;51.762;8.564;2023-09-19T12:13:42;6.03;;;2.57;;
15230;SDS011;32569;51.762;8.564;2023-09-19T12:16:14;6.27;;;2.17;;
15230;SDS011;32569;51.762;8.564;2023-09-19T12:18:42;3.80;;;2.50;;
15230;SDS011;32569;51.762;8.564;2023-09-19T12:21:24;6.40;;;2.50;;
15230;SDS011;32569;51.762;8.564;2023-09-19T12:23:57;6.43;;;2.20;;
15230;SDS011;32569;51.762;8.564;2023-09-19T12:26:27;4.20;;;2.17;;
15230;SDS011;32569;51.762;8.564;2023-09-19T12:28:54;5.30;;;2.23;;
15230;SDS011;32569;51.762;8.564;2023-09-19T12:31:25;5.40;;;2.33;;
15230;SDS011;32569;51.762;8.564;2023-09-19T12:33:53;6.27;;;2.70;;
15230;SDS011;32569;51.762;8.564;2023-09-19T12:36:20;4.57;;;2.30;;
15230;SDS011;32569;51.762;8.564;2023-09-19T12:38:56;5.17;;;2.40;;
15230;SDS011;32569;51.762;8.564;2023-09-19T12:41:24;3.13;;;2.10;;
15230;SDS011;32569;51.762;8.564;2023-09-19T12:43:52;5.63;;;2.33;;
15230;SDS011;32569;51.762;8.564;2023-09-19T12:46:20;6.37;;;2.60;;
15230;SDS011;32569;51.762;8.564;2023-09-19T12:48:50;5.90;;;2.67;;
15230;SDS011;32569;51.762;8.564;2023-09-19T12:51:43;7.03;;;2.33;;
15230;SDS011;32569;51.762;8.564;2023-09-19T12:54:11;4.80;;;2.23;;
15230;SDS011;32569;51.762;8.564;2023-09-19T12:56:40;3.63;;;2.30;;
15230;SDS011;32569;51.762;8.564;2023-09-19T12:59:11;5.17;;;2.30;;
15230;SDS011;32569;51.762;8.564;2023-09-19T13:01:39;4.30;;;2.40;;
15230;SDS011;32569;51.762;8.564;2023-09-19T13:04:10;4.07;;;2.10;;
15230;SDS011;32569;51.762;8.564;2023-09-19T13:06:43;4.97;;;2.23;;
15230;SDS011;32569;51.762;8.564;2023-09-19T13:09:11;2.87;;;2.10;;
15230;SDS011;32569;51.762;8.564;2023-09-19T13:11:39;5.87;;;2.53;;
15230;SDS011;32569;51.762;8.564;2023-09-19T13:14:20;3.67;;;2.17;;
15230;SDS011;32569;51.762;8.564;2023-09-19T13:16:58;3.87;;;2.10;;
15230;SDS011;32569;51.762;8.564;2023-09-19T13:19:35;3.67;;;2.00;;
15230;SDS011;32569;51.762;8.564;2023-09-19T13:22:04;3.80;;;2.10;;
15230;SDS011;32569;51.762;8.564;2023-09-19T13:24:33;4.63;;;2.10;;
15230;SDS011;32569;51.762;8.564;2023-09-19T13:27:08;3.13;;;1.93;;
15230;SDS011;32569;51.762;8.564;2023-09-19T13:29:39;4.10;;;2.43;;
15230;SDS011;32569;51.762;8.564;2023-09-19T13:32:05;6.10;;;2.10;;
15230;SDS011;32569;51.762;8.564;2023-09-19T13:34:36;3.90;;;2.07;;
15230;SDS011;32569;51.762;8.564;2023-09-19T13:37:03;4.60;;;2.10;;
15230;SDS011;32569;51.762;8.564;2023-09-19T13:39:31;4.23;;;2.07;;
15230;SDS011;32569;51.762;8.564;2023-09-19T13:41:57;3.17;;;1.87;;
15230;SDS011;32569;51.762;8.564;2023-09-19T13:44:28;2.77;;;1.50;;
15230;SDS011;32569;51.762;8.564;2023-09-19T13:46:56;3.63;;;1.77;;
15230;SDS011;32569;51.762;8.564;2023-09-19T13:49:23;4.50;;;2.20;;
15230;SDS011;32569;51.762;8.564;2023-09-19T13:51:50;2.77;;;1.77;;
15230;SDS011;32569;51.762;8.564;2023-09-19T13:54:17;5.57;;;2.00;;
15230;SDS011;32569;51.762;8.564;2023-09-19T13:56:46;3.87;;;2.17;;
15230;SDS011;32569;51.762;8.564;2023-09-19T13:59:12;3.30;;;1.70;;
15230;SDS011;32569;51.762;8.564;2023-09-19T14:01:42;4.07;;;1.90;;
15230;SDS011;32569;51.762;8.564;2023-09-19T14:04:10;4.87;;;2.00;;
15230;SDS011;32569;51.762;8.564;2023-09-19T14:06:36;5.47;;;1.93;;
15230;SDS011;32569;51.762;8.564;2023-09-19T14:09:03;4.53;;;2.40;;
15230;SDS011;32569;51.762;8.564;2023-09-19T14:11:30;2.87;;;1.60;;
15230;SDS011;32569;51.762;8.564;2023-09-19T14:13:57;4.83;;;2.30;;
15230;SDS011;32569;51.762;8.564;2023-09-19T14:16:24;4.30;;;1.97;;
15230;SDS011;32569;51.762;8.564;2023-09-19T14:18:55;4.20;;;1.93;;
15230;SDS011;32569;51.762;8.564;2023-09-19T14:21:26;6.80;;;2.17;;
15230;SDS011;32569;51.762;8.564;2023-09-19T14:23:52;2.87;;;1.80;;
15230;SDS011;32569;51.762;8.564;2023-09-19T14:26:19;4.77;;;1.67;;
15230;SDS011;32569;51.762;8.564;2023-09-19T14:28:48;4.67;;;2.60;;
15230;SDS011;32569;51.762;8.564;2023-09-19T14:31:14;4.17;;;1.60;;
15230;SDS011;32569;51.762;8.564;2023-09-19T14:33:41;4.63;;;2.10;;
15230;SDS011;32569;51.762;8.564;2023-09-19T14:36:09;5.27;;;2.00;;
15230;SDS011;32569;51.762;8.564;2023-09-19T14:38:37;3.27;;;2.03;;
15230;SDS011;32569;51.762;8.564;2023-09-19T14:41:04;4.60;;;2.13;;
15230;SDS011;32569;51.762;8.564;2023-09-19T14:43:33;3.40;;;2.00;;
15230;SDS011;32569;51.762;8.564;2023-09-19T14:46:02;5.17;;;2.23;;
15230;SDS011;32569;51.762;8.564;2023-09-19T14:48:29;4.03;;;2.17;;
15230;SDS011;32569;51.762;8.564;2023-09-19T14:51:01;3.10;;;1.90;;
15230;SDS011;32569;51.762;8.564;2023-09-19T14:53:28;3.23;;;2.00;;
15230;SDS011;32569;51.762;8.564;2023-09-19T14:55:59;2.67;;;1.77;;
15230;SDS011;32569;51.762;8.564;2023-09-19T14:58:27;3.93;;;1.80;;
15230;SDS011;32569;51.762;8.564;2023-09-19T15:01:01;2.90;;;2.00;;
15230;SDS011;32569;51.762;8.564;2023-09-19T15:03:29;3.10;;;1.80;;
15230;SDS011;32569;51.762;8.564;2023-09-19T15:05:58;3.60;;;2.17;;
15230;SDS011;32569;51.762;8.564;2023-09-19T15:08:25;7.53;;;4.00;;
15230;SDS011;32569;51.762;8.564;2023-09-19T15:10:52;3.93;;;2.07;;
15230;SDS011;32569;51.762;8.564;2023-09-19T15:13:20;3.07;;;1.57;;
15230;SDS011;32569;51.762;8.564;2023-09-19T15:15:47;4.20;;;2.23;;
15230;SDS011;32569;51.762;8.564;2023-09-19T15:18:14;4.60;;;2.30;;
15230;SDS011;32569;51.762;8.564;2023-09-19T15:20:42;4.73;;;2.60;;
15230;SDS011;32569;51.762;8.564;2023-09-19T15:23:09;3.47;;;1.80;;
15230;SDS011;32569;51.762;8.564;2023-09-19T15:25:45;3.20;;;1.90;;
15230;SDS011;32569;51.762;8.564;2023-09-19T15:28:17;3.17;;;1.80;;